Time;durP1;ratioP1;P1;durP2;ratioP2;P2;SDS_P1;SDS_P2;PMS_P1;PMS_P2;Temp;Humidity;BMP_temperature;BMP_pressure;BME280_temperature;BME280_humidity;BME280_pressure;Samples;Min_cycle;Max_cycle;Signal;HPM_P1;HPM_P2
2022/04/07 00:00:43;;;;;;;4.32;2.10;;;9.30;99.90;;;;;;4897590;29;20057;-69
2022/04/07 00:03:10;;;;;;;3.45;1.88;;;9.30;99.90;;;;;;4893093;29;20103;-68
2022/04/07 00:05:37;;;;;;;3.10;2.30;;;9.30;99.90;;;;;;4897646;29;20045;-69
2022/04/07 00:08:04;;;;;;;2.80;2.00;;;9.30;99.90;;;;;;4897873;29;20112;-69
2022/04/07 00:10:31;;;;;;;3.63;2.60;;;9.30;99.90;;;;;;4894638;29;20390;-69
2022/04/07 00:12:58;;;;;;;4.82;2.85;;;9.30;99.90;;;;;;4893729;29;20051;-69
2022/04/07 00:15:25;;;;;;;4.68;3.20;;;9.30;99.90;;;;;;4897565;29;20056;-69
2022/04/07 00:17:52;;;;;;;4.55;2.83;;;9.30;99.90;;;;;;4896602;29;20055;-69
2022/04/07 00:20:20;;;;;;;3.75;2.97;;;9.20;99.90;;;;;;4894606;29;20040;-69
2022/04/07 00:22:48;;;;;;;5.32;3.40;;;9.20;99.90;;;;;;4897534;29;20048;-69
2022/04/07 00:25:15;;;;;;;3.75;2.92;;;9.20;99.90;;;;;;4896169;29;20044;-69
2022/04/07 00:27:41;;;;;;;6.32;3.30;;;9.20;99.90;;;;;;4893596;29;20104;-69
2022/04/07 00:30:13;;;;;;;4.38;3.28;;;9.20;99.90;;;;;;4896883;29;20100;-69
2022/04/07 00:32:41;;;;;;;6.82;3.92;;;9.20;99.90;;;;;;4897375;29;20045;-69
2022/04/07 00:35:08;;;;;;;4.18;3.50;;;9.20;99.90;;;;;;4896289;29;20123;-69
2022/04/07 00:37:35;;;;;;;5.75;3.25;;;9.10;99.90;;;;;;4897147;29;20056;-69
2022/04/07 00:40:03;;;;;;;6.40;3.80;;;9.10;99.90;;;;;;4896688;29;20040;-69
2022/04/07 00:42:30;;;;;;;5.93;4.10;;;9.00;99.90;;;;;;4897196;29;20041;-69
2022/04/07 00:44:57;;;;;;;4.30;3.90;;;9.10;99.90;;;;;;4895989;29;20104;-69
2022/04/07 00:47:25;;;;;;;7.53;4.97;;;9.00;99.90;;;;;;4896877;29;20052;-69
2022/04/07 00:49:53;;;;;;;7.25;5.07;;;9.00;99.90;;;;;;4896682;29;20583;-69
2022/04/07 00:52:20;;;;;;;10.18;5.72;;;9.00;99.90;;;;;;4896768;29;20045;-69
2022/04/07 00:54:48;;;;;;;9.07;5.95;;;9.00;99.90;;;;;;4895999;29;20051;-69
2022/04/07 00:57:15;;;;;;;6.63;5.43;;;9.00;99.90;;;;;;4897442;29;20040;-69
2022/04/07 00:59:42;;;;;;;11.60;6.25;;;9.00;99.90;;;;;;4896525;29;20044;-69
2022/04/07 01:02:10;;;;;;;7.53;5.97;;;9.10;99.90;;;;;;4896921;29;20049;-69
2022/04/07 01:04:37;;;;;;;9.35;6.25;;;9.10;99.90;;;;;;4895036;29;20048;-69
2022/04/07 01:07:07;;;;;;;7.82;5.10;;;9.10;99.90;;;;;;4895716;29;20059;-69
2022/04/07 01:09:34;;;;;;;10.70;5.78;;;9.10;99.90;;;;;;4896403;29;20068;-69
2022/04/07 01:12:01;;;;;;;8.68;6.20;;;9.00;99.90;;;;;;4896758;29;20063;-69
2022/04/07 01:14:28;;;;;;;10.25;6.70;;;9.10;99.90;;;;;;4889654;29;20045;-68
2022/04/07 01:16:55;;;;;;;12.55;6.80;;;9.10;99.90;;;;;;4896551;29;20052;-69
2022/04/07 01:19:22;;;;;;;10.70;7.20;;;9.10;99.90;;;;;;4895233;29;20386;-69
2022/04/07 01:21:49;;;;;;;12.48;7.18;;;9.10;99.90;;;;;;4895663;29;20052;-69
2022/04/07 01:24:18;;;;;;;10.00;6.32;;;9.10;99.90;;;;;;4895117;29;20073;-69
2022/04/07 01:26:46;;;;;;;12.43;7.20;;;9.10;99.90;;;;;;4896422;29;20037;-68
2022/04/07 01:29:14;;;;;;;10.10;6.63;;;9.00;99.90;;;;;;4896410;29;20059;-69
2022/04/07 01:31:42;;;;;;;9.10;6.45;;;9.00;99.90;;;;;;4893344;29;20508;-69
2022/04/07 01:34:16;;;;;;;9.10;6.82;;;9.00;99.90;;;;;;4896065;29;20120;-69
2022/04/07 01:36:45;;;;;;;8.15;5.80;;;9.00;99.90;;;;;;4896536;29;20100;-69
2022/04/07 01:39:13;;;;;;;9.05;6.20;;;9.00;99.90;;;;;;4896476;29;20048;-69
2022/04/07 01:41:43;;;;;;;8.15;5.47;;;9.00;99.90;;;;;;4894437;29;20052;-69
2022/04/07 01:44:12;;;;;;;8.75;5.95;;;8.90;99.90;;;;;;4896400;29;20040;-69
2022/04/07 01:46:39;;;;;;;8.50;6.15;;;8.90;99.90;;;;;;4896291;29;20074;-69
2022/04/07 01:49:07;;;;;;;9.35;6.30;;;8.90;99.90;;;;;;4896254;29;20036;-69
2022/04/07 01:51:37;;;;;;;8.85;6.03;;;8.90;99.90;;;;;;4893638;29;20049;-69
2022/04/07 01:54:04;;;;;;;10.57;6.40;;;8.90;99.90;;;;;;4896073;29;20104;-69
2022/04/07 01:56:31;;;;;;;10.07;5.65;;;8.90;99.90;;;;;;4896316;29;20048;-69
2022/04/07 01:58:58;;;;;;;9.85;5.35;;;8.90;99.90;;;;;;4896173;29;20049;-69
2022/04/07 02:01:25;;;;;;;7.88;3.88;;;8.80;99.90;;;;;;4890397;29;20055;-69
2022/04/07 02:03:51;;;;;;;5.63;4.15;;;8.80;99.90;;;;;;4896562;29;20108;-69
2022/04/07 02:06:19;;;;;;;5.72;3.85;;;8.80;99.90;;;;;;4899709;29;20045;-69
2022/04/07 02:08:46;;;;;;;7.00;4.68;;;8.80;99.90;;;;;;4899915;29;20048;-69
2022/04/07 02:11:13;;;;;;;5.28;3.45;;;8.80;99.90;;;;;;4898921;29;20041;-69
2022/04/07 02:13:40;;;;;;;4.97;3.72;;;8.80;99.90;;;;;;4899835;29;20041;-69
2022/04/07 02:16:09;;;;;;;5.88;4.40;;;8.80;99.90;;;;;;4899818;29;20063;-69
2022/04/07 02:18:37;;;;;;;8.90;6.15;;;8.80;99.90;;;;;;4898231;29;20055;-69
2022/04/07 02:21:05;;;;;;;11.10;6.70;;;8.80;99.90;;;;;;4899223;29;20053;-69
2022/04/07 02:23:40;;;;;;;9.95;6.90;;;8.80;99.90;;;;;;4899717;29;20048;-69
2022/04/07 02:26:14;;;;;;;11.20;6.97;;;8.80;99.90;;;;;;4899701;29;20057;-68
2022/04/07 02:28:41;;;;;;;11.15;6.97;;;8.80;99.90;;;;;;4893807;29;20067;-69
2022/04/07 02:31:09;;;;;;;11.90;7.78;;;8.80;99.90;;;;;;4899173;29;20059;-69
2022/04/07 02:33:36;;;;;;;11.18;7.78;;;8.80;99.90;;;;;;4899411;29;20048;-69
2022/04/07 02:36:06;;;;;;;;;;;8.80;99.90;;;;;;4894134;29;20052;-69
2022/04/07 02:38:35;;;;;;;12.15;7.45;;;8.80;99.90;;;;;;4899308;29;19923;-69
2022/04/07 02:41:01;;;;;;;11.90;7.90;;;8.80;99.90;;;;;;4899125;29;20063;-69
2022/04/07 02:43:28;;;;;;;8.13;6.28;;;8.80;99.90;;;;;;4897369;29;20041;-69
2022/04/07 02:45:55;;;;;;;7.32;5.53;;;8.80;99.90;;;;;;4899067;29;20045;-69
2022/04/07 02:48:22;;;;;;;6.05;4.25;;;8.80;99.90;;;;;;4899143;29;20067;-69
2022/04/07 02:50:49;;;;;;;7.68;3.90;;;8.70;99.90;;;;;;4897087;29;20513;-69
2022/04/07 02:53:15;;;;;;;7.65;4.70;;;8.70;99.90;;;;;;4897548;29;20064;-69
2022/04/07 02:55:42;;;;;;;6.18;4.90;;;8.60;99.90;;;;;;4899306;29;20442;-69
2022/04/07 02:58:09;;;;;;;8.88;5.68;;;8.70;99.90;;;;;;4899112;29;20049;-69
2022/04/07 03:00:36;;;;;;;9.60;5.72;;;8.70;99.90;;;;;;4895303;29;20089;-69
2022/04/07 03:03:02;;;;;;;8.13;5.25;;;8.70;99.90;;;;;;4895802;29;20048;-69
2022/04/07 03:05:29;;;;;;;6.28;4.45;;;8.70;99.90;;;;;;4898930;29;20044;-68
2022/04/07 03:07:57;;;;;;;8.43;5.15;;;8.60;99.90;;;;;;4898962;29;20055;-69
2022/04/07 03:10:24;;;;;;;7.00;5.07;;;8.60;99.90;;;;;;4894644;29;20041;-69
2022/04/07 03:12:50;;;;;;;6.43;5.10;;;8.60;99.90;;;;;;4898483;29;20036;-69
2022/04/07 03:15:17;;;;;;;5.05;3.97;;;8.60;99.90;;;;;;4898486;29;20131;-69
2022/04/07 03:17:44;;;;;;;4.97;4.00;;;8.50;99.90;;;;;;4898426;29;20056;-69
2022/04/07 03:20:11;;;;;;;9.32;4.40;;;8.60;99.90;;;;;;4892535;29;20041;-69
2022/04/07 03:22:38;;;;;;;5.63;3.72;;;8.60;99.90;;;;;;4898523;29;20517;-69
2022/04/07 03:25:05;;;;;;;5.93;3.70;;;8.60;99.90;;;;;;4898527;29;20064;-69
2022/04/07 03:27:31;;;;;;;5.82;3.58;;;8.50;99.90;;;;;;4898496;29;20049;-69
2022/04/07 03:29:58;;;;;;;5.13;3.05;;;8.50;99.90;;;;;;4890584;29;20052;-69
2022/04/07 03:32:25;;;;;;;6.90;3.35;;;8.40;99.90;;;;;;4898019;29;20048;-69
2022/04/07 03:34:52;;;;;;;5.75;4.05;;;8.30;99.90;;;;;;4897634;29;20040;-69
2022/04/07 03:37:20;;;;;;;10.48;5.63;;;8.30;99.90;;;;;;4898315;29;20410;-69
2022/04/07 03:39:47;;;;;;;8.77;5.60;;;8.30;99.90;;;;;;4895115;29;20052;-69
2022/04/07 03:42:14;;;;;;;7.50;5.60;;;8.30;99.90;;;;;;4897766;29;20052;-69
2022/04/07 03:44:41;;;;;;;5.38;4.07;;;8.30;99.90;;;;;;4898158;29;20397;-69
2022/04/07 03:47:07;;;;;;;5.15;3.15;;;8.30;99.90;;;;;;4895546;29;20044;-69
2022/04/07 03:49:34;;;;;;;6.20;3.65;;;8.20;99.90;;;;;;4897140;29;20044;-69
2022/04/07 03:52:01;;;;;;;5.40;3.83;;;8.20;99.90;;;;;;4898248;29;20045;-69
2022/04/07 03:54:27;;;;;;;5.22;3.40;;;8.20;99.90;;;;;;4897325;29;20074;-69
2022/04/07 03:56:55;;;;;;;5.03;3.47;;;8.20;99.90;;;;;;4897816;29;20048;-69
2022/04/07 03:59:22;;;;;;;7.20;2.90;;;8.20;99.90;;;;;;4897602;29;20056;-69
2022/04/07 04:01:49;;;;;;;3.95;2.40;;;8.20;99.90;;;;;;4897634;29;20048;-69
2022/04/07 04:04:20;;;;;;;3.90;2.42;;;8.20;99.90;;;;;;4896954;29;20057;-69
2022/04/07 04:06:47;;;;;;;3.72;2.60;;;8.10;99.90;;;;;;4897830;29;20037;-69
2022/04/07 04:09:13;;;;;;;8.18;3.30;;;8.20;99.90;;;;;;4897640;29;20036;-69
2022/04/07 04:11:40;;;;;;;6.60;4.63;;;8.10;99.90;;;;;;4896694;29;20048;-69
2022/04/07 04:14:07;;;;;;;7.75;5.60;;;8.10;99.90;;;;;;4894522;29;20036;-69
2022/04/07 04:16:34;;;;;;;8.13;5.97;;;8.10;99.90;;;;;;4897159;29;20040;-69
2022/04/07 04:19:01;;;;;;;;;;;8.20;99.90;;;;;;4897348;29;20649;-69
2022/04/07 04:21:27;;;;;;;3.47;2.58;;;8.10;99.90;;;;;;4896555;29;19930;-69
2022/04/07 04:23:54;;;;;;;3.55;2.40;;;8.10;99.90;;;;;;4890978;29;20057;-69
2022/04/07 04:26:21;;;;;;;7.72;3.47;;;8.00;99.90;;;;;;4888500;29;20097;-69
2022/04/07 04:28:48;;;;;;;5.82;2.55;;;7.90;99.90;;;;;;4897135;29;20048;-69
2022/04/07 04:31:14;;;;;;;5.07;1.80;;;7.90;99.90;;;;;;4896522;29;20121;-69
2022/04/07 04:33:41;;;;;;;6.57;1.98;;;8.00;99.90;;;;;;4896478;29;20501;-70
2022/04/07 04:36:09;;;;;;;6.33;2.10;;;8.00;99.90;;;;;;4895199;29;20040;-69
2022/04/07 04:38:36;;;;;;;3.15;1.88;;;7.90;99.90;;;;;;4896702;29;20805;-68
2022/04/07 04:41:02;;;;;;;3.55;2.28;;;8.00;99.90;;;;;;4896508;29;20037;-70
2022/04/07 04:43:29;;;;;;;3.45;1.75;;;8.00;99.90;;;;;;4895878;29;20108;-69
2022/04/07 04:45:56;;;;;;;1.83;1.55;;;8.00;99.90;;;;;;4896171;29;20049;-70
2022/04/07 04:48:22;;;;;;;2.75;1.60;;;8.00;99.90;;;;;;4897120;29;20497;-70
2022/04/07 04:50:49;;;;;;;5.40;2.70;;;7.90;99.90;;;;;;4895831;29;20052;-70
2022/04/07 04:53:16;;;;;;;6.47;3.67;;;7.90;99.90;;;;;;4895337;29;20490;-69
2022/04/07 04:55:42;;;;;;;7.65;5.63;;;7.90;99.90;;;;;;4896583;29;20053;-68
2022/04/07 04:58:09;;;;;;;12.00;6.75;;;7.90;99.90;;;;;;4896834;29;20049;-68
2022/04/07 05:00:36;;;;;;;11.30;7.43;;;8.00;99.90;;;;;;4890378;29;20446;-70
2022/04/07 05:03:03;;;;;;;3.15;2.33;;;8.10;99.90;;;;;;4896663;29;20043;-69
2022/04/07 05:05:55;;;;;;;5.05;3.50;;;8.00;99.90;;;;;;4926680;23;20496;-65
2022/04/07 05:08:21;;;;;;;5.35;3.03;;;8.00;99.90;;;;;;4907858;29;20048;-65
2022/04/07 05:10:48;;;;;;;4.90;2.83;;;8.00;99.90;;;;;;4914658;29;20041;-65
2022/04/07 05:13:15;;;;;;;5.53;2.28;;;8.00;99.90;;;;;;4932850;29;20048;-64
2022/04/07 05:15:42;;;;;;;2.08;1.83;;;7.90;99.90;;;;;;4934330;29;20095;-65
2022/04/07 05:18:09;;;;;;;4.18;2.50;;;7.90;99.90;;;;;;4916171;29;20044;-65
2022/04/07 05:20:37;;;;;;;4.63;2.28;;;7.90;99.90;;;;;;4914737;29;20052;-65
2022/04/07 05:23:04;;;;;;;3.00;1.85;;;7.80;99.90;;;;;;4915759;29;20425;-66
2022/04/07 05:25:30;;;;;;;4.00;1.88;;;7.80;99.90;;;;;;4910758;29;20100;-65
2022/04/07 05:27:57;;;;;;;1.75;1.30;;;7.80;99.90;;;;;;4911535;29;20377;-65
2022/04/07 05:30:24;;;;;;;1.90;1.38;;;7.80;99.90;;;;;;4914598;29;20048;-67
2022/04/07 05:32:51;;;;;;;2.25;1.40;;;7.70;99.90;;;;;;4913100;29;20043;-65
2022/04/07 05:35:18;;;;;;;2.55;1.45;;;7.70;99.90;;;;;;4914399;29;20294;-65
2022/04/07 05:37:45;;;;;;;2.78;1.75;;;7.60;99.90;;;;;;4915071;29;20045;-66
2022/04/07 05:40:12;;;;;;;3.20;2.10;;;7.50;99.90;;;;;;4914458;29;20048;-65
2022/04/07 05:42:39;;;;;;;4.38;2.30;;;7.50;99.90;;;;;;4912720;29;20386;-65
2022/04/07 05:45:07;;;;;;;4.07;2.92;;;7.50;99.90;;;;;;4912209;29;20111;-65
2022/04/07 05:47:41;;;;;;;17.67;10.95;;;7.60;99.90;;;;;;4914827;29;20048;-65
2022/04/07 05:50:09;;;;;;;18.58;11.88;;;7.60;99.90;;;;;;4914819;29;20055;-65
2022/04/07 05:52:36;;;;;;;9.65;6.40;;;7.60;99.90;;;;;;4911107;29;20510;-65
2022/04/07 05:55:04;;;;;;;8.80;5.75;;;7.80;99.90;;;;;;4911684;29;20573;-65
2022/04/07 05:57:30;;;;;;;9.75;6.53;;;7.80;99.90;;;;;;4914733;29;20490;-65
2022/04/07 06:00:06;;;;;;;11.65;7.88;;;8.00;99.90;;;;;;4914529;29;20735;-65
2022/04/07 06:02:33;;;;;;;15.18;9.75;;;8.10;99.90;;;;;;4907952;29;20048;-65
2022/04/07 06:05:00;;;;;;;12.80;8.52;;;8.10;99.90;;;;;;4914804;29;20056;-65
2022/04/07 06:07:26;;;;;;;9.88;6.82;;;8.20;99.90;;;;;;4914952;29;20044;-65
2022/04/07 06:09:53;;;;;;;13.57;8.63;;;8.40;99.90;;;;;;4910027;29;20036;-65
2022/04/07 06:12:20;;;;;;;12.68;7.75;;;8.50;99.90;;;;;;4914755;29;20520;-65
2022/04/07 06:14:46;;;;;;;12.18;7.95;;;8.80;99.90;;;;;;4914792;29;20048;-65
2022/04/07 06:17:13;;;;;;;14.77;8.77;;;9.00;99.90;;;;;;4896835;29;20442;-65
2022/04/07 06:19:40;;;;;;;13.98;9.23;;;9.20;99.90;;;;;;4914182;29;20052;-65
2022/04/07 06:22:07;;;;;;;13.23;8.10;;;9.40;99.90;;;;;;4914857;29;20405;-65
2022/04/07 06:24:34;;;;;;;14.57;8.38;;;9.50;99.90;;;;;;4914833;29;20070;-65
2022/04/07 06:27:01;;;;;;;12.95;8.85;;;9.70;99.90;;;;;;4896629;29;20135;-65
2022/04/07 06:29:28;;;;;;;12.57;8.45;;;9.90;99.90;;;;;;4906667;29;20045;-65
2022/04/07 06:31:54;;;;;;;14.85;9.15;;;10.20;99.90;;;;;;4914845;29;20056;-65
2022/04/07 06:34:22;;;;;;;13.82;9.23;;;10.20;99.90;;;;;;4914762;29;20139;-65
2022/04/07 06:36:49;;;;;;;13.45;9.18;;;10.20;99.90;;;;;;4910351;29;20493;-65
2022/04/07 06:39:15;;;;;;;14.40;9.80;;;9.90;99.90;;;;;;4914496;29;20063;-65
2022/04/07 06:41:42;;;;;;;12.83;8.20;;;9.80;99.90;;;;;;4914368;29;20509;-65
2022/04/07 06:44:09;;;;;;;14.68;9.75;;;9.80;99.90;;;;;;4896189;29;20312;-65
2022/04/07 06:46:36;;;;;;;13.98;9.07;;;9.80;99.90;;;;;;4914509;29;20044;-65
2022/04/07 06:49:03;;;;;;;13.68;8.85;;;9.80;99.90;;;;;;4914677;29;20095;-65
2022/04/07 06:51:30;;;;;;;14.93;8.88;;;9.90;99.90;;;;;;4915488;29;20047;-65
2022/04/07 06:53:57;;;;;;;11.10;7.03;;;10.00;99.90;;;;;;4911382;29;20049;-65
2022/04/07 06:56:24;;;;;;;11.75;7.68;;;10.20;99.90;;;;;;4917564;29;20453;-65
2022/04/07 06:58:54;;;;;;;10.50;6.78;;;10.40;99.90;;;;;;4917966;29;20066;-65
2022/04/07 07:01:21;;;;;;;13.40;6.68;;;10.70;99.90;;;;;;4917442;29;20362;-65
2022/04/07 07:03:47;;;;;;;9.65;6.30;;;10.90;99.90;;;;;;4916238;29;20076;-65
2022/04/07 07:06:14;;;;;;;8.02;6.18;;;11.10;99.90;;;;;;4917388;29;20103;-65
2022/04/07 07:08:42;;;;;;;11.05;7.40;;;11.10;99.90;;;;;;4917673;29;20512;-65
2022/04/07 07:11:09;;;;;;;10.23;7.30;;;10.90;99.90;;;;;;4914706;29;20505;-65
2022/04/07 07:13:37;;;;;;;9.57;6.65;;;10.80;99.90;;;;;;4917451;29;20050;-65
2022/04/07 07:16:04;;;;;;;10.80;7.32;;;10.70;99.90;;;;;;4917468;29;20056;-65
2022/04/07 07:18:31;;;;;;;9.48;6.93;;;10.50;99.90;;;;;;4917548;29;20052;-65
2022/04/07 07:20:58;;;;;;;13.00;7.65;;;10.40;99.90;;;;;;4913702;29;20418;-65
2022/04/07 07:23:25;;;;;;;10.85;6.93;;;10.30;99.90;;;;;;4916969;29;20039;-65
2022/04/07 07:25:51;;;;;;;11.77;7.05;;;10.30;99.90;;;;;;4917158;29;20100;-65
2022/04/07 07:28:18;;;;;;;8.43;6.25;;;10.40;99.90;;;;;;4917385;29;20048;-65
2022/04/07 07:30:45;;;;;;;9.13;6.60;;;10.40;99.90;;;;;;4910287;29;20104;-65
2022/04/07 07:33:12;;;;;;;13.00;7.53;;;10.60;99.90;;;;;;4917159;29;20052;-65
2022/04/07 07:35:39;;;;;;;14.30;8.05;;;10.70;99.90;;;;;;4917122;29;20347;-65
2022/04/07 07:38:07;;;;;;;;;;;10.70;99.90;;;;;;4917344;29;20075;-65
2022/04/07 07:40:34;;;;;;;13.30;8.10;;;10.60;99.90;;;;;;4913424;29;20422;-66
2022/04/07 07:43:02;;;;;;;14.38;7.93;;;10.60;99.90;;;;;;4917259;29;20386;-65
2022/04/07 07:45:34;;;;;;;9.00;6.72;;;10.80;99.90;;;;;;4917027;29;20050;-66
2022/04/07 07:48:27;;;;;;;11.88;7.53;;;11.10;99.90;;;;;;4910878;29;20058;-66
2022/04/07 07:50:55;;;;;;;12.32;7.43;;;11.40;99.90;;;;;;4916454;29;20052;-66
2022/04/07 07:53:22;;;;;;;12.52;6.93;;;11.60;99.90;;;;;;4916692;29;20052;-65
2022/04/07 07:55:49;;;;;;;11.38;7.10;;;11.60;99.90;;;;;;4910281;29;20108;-66
2022/04/07 07:58:16;;;;;;;12.43;7.30;;;11.50;99.90;;;;;;4915288;29;20048;-66
2022/04/07 08:00:43;;;;;;;8.10;5.68;;;11.60;99.90;;;;;;4916136;29;20396;-66
2022/04/07 08:03:10;;;;;;;9.85;6.47;;;11.60;99.90;;;;;;4916536;29;20063;-66
2022/04/07 08:05:37;;;;;;;9.00;6.28;;;11.70;99.90;;;;;;4912094;29;20040;-66
2022/04/07 08:08:04;;;;;;;7.97;6.55;;;11.80;99.90;;;;;;4916752;29;20135;-66
2022/04/07 08:10:31;;;;;;;6.13;4.47;;;11.80;99.90;;;;;;4916172;29;20040;-65
2022/04/07 08:12:58;;;;;;;6.35;4.32;;;11.90;99.90;;;;;;4914496;29;20493;-65
2022/04/07 08:15:25;;;;;;;8.30;3.63;;;12.00;99.90;;;;;;4915814;29;20046;-66
2022/04/07 08:17:51;;;;;;;5.47;3.42;;;12.10;99.90;;;;;;4916594;29;20481;-65
2022/04/07 08:20:19;;;;;;;11.35;4.00;;;12.30;99.90;;;;;;4916062;29;20056;-66
2022/04/07 08:22:45;;;;;;;11.75;3.33;;;12.50;99.90;;;;;;4910685;29;20059;-66
2022/04/07 08:25:12;;;;;;;6.93;3.28;;;12.60;99.90;;;;;;4914260;29;20103;-67
2022/04/07 08:27:39;;;;;;;6.03;3.40;;;12.50;99.90;;;;;;4916038;29;20116;-66
2022/04/07 08:30:06;;;;;;;3.47;3.05;;;12.60;99.90;;;;;;4915870;29;20047;-66
2022/04/07 08:32:33;;;;;;;3.45;2.78;;;12.80;99.90;;;;;;4913524;29;20048;-66
2022/04/07 08:35:01;;;;;;;3.45;2.63;;;12.90;99.90;;;;;;4915933;29;20056;-65
2022/04/07 08:37:28;;;;;;;4.15;2.67;;;12.90;99.90;;;;;;4915874;29;20108;-66
2022/04/07 08:39:55;;;;;;;3.30;2.72;;;13.00;99.90;;;;;;4915644;29;20048;-66
2022/04/07 08:42:26;;;;;;;4.28;2.83;;;13.20;99.90;;;;;;4910279;29;20516;-67
2022/04/07 08:44:54;;;;;;;6.10;3.28;;;13.40;99.90;;;;;;4915700;29;20048;-67
2022/04/07 08:47:21;;;;;;;7.68;2.50;;;13.50;99.90;;;;;;4915960;29;20055;-66
2022/04/07 08:49:49;;;;;;;4.72;2.17;;;13.70;99.90;;;;;;4913791;29;20044;-66
2022/04/07 08:52:16;;;;;;;2.55;2.13;;;13.80;99.90;;;;;;4914426;29;20048;-66
2022/04/07 08:54:45;;;;;;;5.70;2.47;;;13.40;99.90;;;;;;4915570;29;20048;-66
2022/04/07 08:57:12;;;;;;;3.53;2.67;;;13.30;99.90;;;;;;4915762;29;20497;-66
2022/04/07 08:59:39;;;;;;;;;;;13.30;99.90;;;;;;4911266;29;20055;-66
2022/04/07 09:02:09;;;;;;;2.47;1.70;;;13.20;99.90;;;;;;4912965;29;20301;-66
2022/04/07 09:04:37;;;;;;;4.82;2.22;;;13.10;99.90;;;;;;4915628;29;20056;-66
2022/04/07 09:07:04;;;;;;;2.63;2.08;;;13.00;99.90;;;;;;4915381;29;20453;-66
2022/04/07 09:09:32;;;;;;;2.58;2.15;;;13.00;99.90;;;;;;4909015;29;20048;-67
2022/04/07 09:11:59;;;;;;;2.83;2.00;;;13.00;99.90;;;;;;4915495;29;20048;-67
2022/04/07 09:14:32;;;;;;;4.47;2.47;;;13.20;99.90;;;;;;4914832;29;20095;-66
2022/04/07 09:16:58;;;;;;;2.30;1.73;;;13.30;99.90;;;;;;4913549;29;20044;-66
2022/04/07 09:19:25;;;;;;;4.20;2.13;;;13.40;99.90;;;;;;4914915;29;20486;-66
2022/04/07 09:22:09;;;;;;;3.65;1.92;;;13.50;99.90;;;;;;4898327;29;20506;-66
2022/04/07 09:24:37;;;;;;;2.45;1.85;;;13.70;99.90;;;;;;4912476;29;20540;-66
2022/04/07 09:27:06;;;;;;;5.13;2.08;;;13.70;99.90;;;;;;4912138;29;20095;-67
2022/04/07 09:29:41;;;;;;;4.13;2.10;;;13.90;99.90;;;;;;4915028;29;20497;-66
2022/04/07 09:32:24;;;;;;;2.33;1.83;;;13.90;99.90;;;;;;4915191;29;20048;-67
2022/04/07 09:35:00;;;;;;;3.70;2.20;;;14.20;99.90;;;;;;4912766;29;20162;-66
2022/04/07 09:37:28;;;;;;;2.65;1.50;;;14.20;99.90;;;;;;4915160;29;20052;-66
2022/04/07 09:40:09;;;;;;;2.35;1.30;;;14.30;99.90;;;;;;4914846;29;20088;-67
2022/04/07 09:42:37;;;;;;;2.97;1.90;;;14.50;99.90;;;;;;4908751;29;20560;-66
2022/04/07 09:45:07;;;;;;;4.30;2.20;;;14.70;99.90;;;;;;4914899;29;20048;-66
2022/04/07 09:47:39;;;;;;;2.78;1.70;;;14.80;99.90;;;;;;4915025;29;20388;-66
2022/04/07 09:50:08;;;;;;;3.70;1.55;;;14.90;99.90;;;;;;4914577;29;20040;-66
2022/04/07 09:52:40;;;;;;;3.33;1.58;;;14.80;99.90;;;;;;4908616;29;20044;-66
2022/04/07 09:55:08;;;;;;;4.68;1.58;;;15.10;99.90;;;;;;4914921;29;20052;-66
2022/04/07 09:57:36;;;;;;;4.07;1.50;;;15.30;99.90;;;;;;4915060;29;20514;-67
2022/04/07 10:00:04;;;;;;;1.67;1.30;;;15.30;99.90;;;;;;4913318;29;20062;-67
2022/04/07 10:02:32;;;;;;;2.13;1.35;;;15.50;99.90;;;;;;4914856;29;20494;-67
2022/04/07 10:05:00;;;;;;;1.42;1.25;;;15.70;99.90;;;;;;4915167;29;20048;-67
2022/04/07 10:07:28;;;;;;;6.90;1.30;;;15.60;99.90;;;;;;4914873;29;20045;-67
2022/04/07 10:09:55;;;;;;;3.75;1.55;;;15.40;99.90;;;;;;4910196;29;20072;-67
2022/04/07 10:12:24;;;;;;;2.28;1.40;;;15.30;99.90;;;;;;4914936;29;20040;-67
2022/04/07 10:14:51;;;;;;;1.98;1.55;;;15.50;99.90;;;;;;4914811;29;20064;-67
2022/04/07 10:17:18;;;;;;;4.78;1.50;;;15.70;99.90;;;;;;4910865;29;20100;-67
2022/04/07 10:19:58;;;;;;;2.20;1.25;;;15.90;99.90;;;;;;4914733;29;20056;-66
2022/04/07 10:22:55;;;;;;;6.05;1.67;;;16.00;99.90;;;;;;4914846;29;20051;-67
2022/04/07 10:25:23;;;;;;;2.63;1.23;;;16.00;99.90;;;;;;4909119;29;20390;-67
2022/04/07 10:27:53;;;;;;;2.53;1.20;;;16.00;99.90;;;;;;4918311;29;20104;-67
2022/04/07 10:30:21;;;;;;;4.10;1.50;;;16.20;99.90;;;;;;4918147;29;20408;-67
2022/04/07 10:32:50;;;;;;;4.13;1.80;;;16.00;99.90;;;;;;4918078;29;20100;-67
2022/04/07 10:35:43;;;;;;;2.08;1.10;;;16.10;99.90;;;;;;4917166;29;20063;-67
2022/04/07 10:38:10;;;;;;;2.47;1.25;;;16.30;99.90;;;;;;4915537;29;20064;-67
2022/04/07 10:40:38;;;;;;;;;;;16.40;99.90;;;;;;4918325;29;20044;-66
2022/04/07 10:43:13;;;;;;;1.37;1.27;;;16.50;99.90;;;;;;4916823;29;19978;-67
2022/04/07 10:45:48;;;;;;;2.88;1.10;;;16.40;99.90;;;;;;4918070;29;20792;-67
2022/04/07 10:48:20;;;;;;;1.67;1.00;;;16.60;99.90;;;;;;4918056;29;20048;-67
2022/04/07 10:50:53;;;;;;;3.22;1.10;;;16.80;99.90;;;;;;4917753;29;20111;-67
2022/04/07 10:53:25;;;;;;;2.10;1.15;;;16.90;99.90;;;;;;4914735;29;20044;-67
2022/04/07 10:56:08;;;;;;;2.08;0.98;;;17.20;99.90;;;;;;4918053;29;20672;-67
2022/04/07 10:58:42;;;;;;;1.83;1.40;;;17.50;99.90;;;;;;4918020;29;20062;-67
2022/04/07 11:01:36;;;;;;;5.32;1.15;;;17.50;99.90;;;;;;4912709;29;20044;-67
2022/04/07 11:04:36;;;;;;;3.95;1.17;;;17.80;99.90;;;;;;4932005;23;20054;-69
2022/04/07 11:07:13;;;;;;;1.58;0.90;;;17.90;99.90;;;;;;4897462;29;20108;-69
2022/04/07 11:09:40;;;;;;;1.27;1.10;;;18.10;99.90;;;;;;4897539;29;20051;-69
2022/04/07 11:12:11;;;;;;;4.15;1.08;;;18.10;98.20;;;;;;4898717;29;20248;-69
2022/04/07 11:14:38;;;;;;;2.15;0.70;;;18.00;99.00;;;;;;4895932;29;20413;-69
2022/04/07 11:17:07;;;;;;;2.92;0.73;;;17.60;98.20;;;;;;4905149;29;20044;-71
2022/04/07 11:20:06;;;;;;;3.75;0.85;;;17.60;98.70;;;;;;4898093;29;20490;-71
2022/04/07 11:22:46;;;;;;;;;;;17.90;97.50;;;;;;4899093;29;20071;-71
2022/04/07 11:25:40;;;;;;;6.53;1.00;;;17.90;97.70;;;;;;4898331;29;19927;-71
2022/04/07 11:28:11;;;;;;;2.70;0.88;;;18.20;95.60;;;;;;4892589;29;20536;-71
2022/04/07 11:30:54;;;;;;;1.95;1.10;;;18.30;94.60;;;;;;4897915;29;20094;-69
2022/04/07 11:33:27;;;;;;;2.10;0.70;;;18.20;93.20;;;;;;4898462;29;20044;-70
2022/04/07 11:36:00;;;;;;;2.03;0.70;;;18.30;93.70;;;;;;4896997;29;20056;-71
2022/04/07 11:38:27;;;;;;;1.98;0.50;;;18.70;94.30;;;;;;4897596;29;20051;-71
2022/04/07 11:41:10;;;;;;;2.55;0.73;;;18.50;85.10;;;;;;4897962;29;20056;-70
2022/04/07 11:43:40;;;;;;;3.92;0.63;;;18.70;88.10;;;;;;4895345;29;20470;-71
2022/04/07 11:46:07;;;;;;;5.25;0.60;;;18.80;87.10;;;;;;4895041;29;20052;-71
2022/04/07 11:48:57;;;;;;;1.77;0.60;;;19.10;86.20;;;;;;4898118;29;20049;-71
2022/04/07 11:51:25;;;;;;;2.50;0.60;;;19.30;81.90;;;;;;4896290;29;20092;-71
2022/04/07 11:53:54;;;;;;;2.60;0.68;;;19.60;81.40;;;;;;4897760;29;20542;-71
2022/04/07 11:56:26;;;;;;;4.60;1.10;;;19.70;79.60;;;;;;4898017;29;20555;-71
2022/04/07 11:58:53;;;;;;;2.13;0.70;;;19.60;81.50;;;;;;4898103;29;20091;-71
2022/04/07 12:01:20;;;;;;;;;;;19.80;81.70;;;;;;4896524;29;20064;-70
2022/04/07 12:03:52;;;;;;;3.00;0.80;;;20.10;80.00;;;;;;4897774;29;20287;-70
2022/04/07 12:06:46;;;;;;;1.63;0.60;;;20.10;75.30;;;;;;4897646;29;20041;-70
2022/04/07 12:09:15;;;;;;;2.10;0.73;;;20.00;77.50;;;;;;4895385;29;20143;-70
2022/04/07 12:11:43;;;;;;;0.90;0.60;;;20.10;77.70;;;;;;4891518;29;20048;-70
2022/04/07 12:14:14;;;;;;;1.15;0.68;;;20.10;71.60;;;;;;4897344;29;20462;-70
2022/04/07 12:16:48;;;;;;;2.50;0.88;;;19.70;71.30;;;;;;4898007;29;20100;-70
2022/04/07 12:19:18;;;;;;;4.03;0.75;;;19.30;71.30;;;;;;4895953;29;20131;-71
2022/04/07 12:21:57;;;;;;;1.65;0.70;;;19.20;70.90;;;;;;4897151;29;20135;-70
2022/04/07 12:24:28;;;;;;;1.10;0.60;;;19.30;72.10;;;;;;4897553;29;20501;-70
2022/04/07 12:27:00;;;;;;;2.70;0.63;;;19.50;68.90;;;;;;4892205;29;20072;-70
2022/04/07 12:29:31;;;;;;;2.03;0.70;;;19.50;70.10;;;;;;4888932;29;20104;-70
2022/04/07 12:32:06;;;;;;;2.97;1.38;;;19.10;67.20;;;;;;4897296;29;20044;-70
2022/04/07 12:34:51;;;;;;;1.95;0.80;;;19.10;67.00;;;;;;4897315;29;20052;-70
2022/04/07 12:37:38;;;;;;;0.75;0.55;;;19.10;69.30;;;;;;4894319;29;20062;-70
2022/04/07 12:40:27;;;;;;;2.15;0.70;;;19.10;65.20;;;;;;4896776;29;20068;-70
2022/04/07 12:42:59;;;;;;;2.20;0.60;;;18.90;66.70;;;;;;4888386;29;20061;-70
2022/04/07 12:45:26;;;;;;;2.70;0.70;;;18.80;66.10;;;;;;4890373;29;20524;-71
2022/04/07 12:48:10;;;;;;;2.50;0.75;;;18.80;68.70;;;;;;4896710;29;20049;-71
2022/04/07 12:50:53;;;;;;;3.65;0.85;;;18.90;65.50;;;;;;4896820;29;20421;-71
2022/04/07 12:53:29;;;;;;;3.20;1.00;;;18.90;65.40;;;;;;4895159;29;20059;-70
2022/04/07 12:55:57;;;;;;;1.90;1.17;;;19.00;64.20;;;;;;4896806;29;20052;-70
2022/04/07 12:58:27;;;;;;;;;;;19.40;64.70;;;;;;4897187;29;20059;-70
2022/04/07 13:01:00;;;;;;;2.83;0.80;;;19.50;62.30;;;;;;4895210;29;19991;-70
2022/04/07 13:03:30;;;;;;;2.83;1.05;;;19.70;65.50;;;;;;4888922;29;20052;-70